createdAt,value
2022-09-28T00:02:19.518Z,92.20
2022-09-28T00:04:45.999Z,93.02
2022-09-28T00:07:12.365Z,93.03
2022-09-28T00:09:38.739Z,93.72
2022-09-28T00:12:06.637Z,93.28
2022-09-28T00:14:32.989Z,93.28
2022-09-28T00:16:59.506Z,93.83
2022-09-28T00:19:25.865Z,93.54
2022-09-28T00:21:52.222Z,94.05
2022-09-28T00:24:25.203Z,94.35
2022-09-28T00:26:58.047Z,94.37
2022-09-28T00:29:26.907Z,94.84
2022-09-28T00:31:59.732Z,94.43
2022-09-28T00:34:27.266Z,94.32
2022-09-28T00:36:53.641Z,95.29
2022-09-28T00:39:20.102Z,95.40
2022-09-28T00:41:47.188Z,95.53
2022-09-28T00:44:22.450Z,95.75
2022-09-28T00:46:52.857Z,95.30
2022-09-28T00:49:27.383Z,95.80
2022-09-28T00:51:54.511Z,95.67
2022-09-28T00:54:21.903Z,96.09
2022-09-28T00:56:48.889Z,95.52
2022-09-28T00:59:16.169Z,95.97
2022-09-28T01:01:42.620Z,96.03
2022-09-28T01:04:09.190Z,95.91
2022-09-28T01:06:38.239Z,95.65
2022-09-28T01:09:08.499Z,96.35
2022-09-28T01:11:38.701Z,95.88
2022-09-28T01:14:11.416Z,96.52
2022-09-28T01:16:49.515Z,96.38
2022-09-28T01:20:06.753Z,96.17
2022-09-28T01:22:35.199Z,96.72
2022-09-28T01:25:16.613Z,96.47
2022-09-28T01:27:49.526Z,96.36
2022-09-28T01:30:20.272Z,96.53
2022-09-28T01:33:03.997Z,96.86
2022-09-28T01:35:47.553Z,96.87
2022-09-28T01:38:25.122Z,96.32
2022-09-28T01:40:53.642Z,96.86
2022-09-28T01:43:24.992Z,96.38
2022-09-28T01:45:57.821Z,96.58
2022-09-28T01:48:49.139Z,96.91
2022-09-28T01:51:25.765Z,96.37
2022-09-28T01:53:57.346Z,95.95
2022-09-28T01:56:30.750Z,95.99
2022-09-28T01:59:07.749Z,96.66
2022-09-28T02:01:41.401Z,96.34
2022-09-28T02:04:40.968Z,95.78
2022-09-28T02:07:16.348Z,95.86
2022-09-28T02:09:47.703Z,95.94
2022-09-28T02:12:27.314Z,95.89
2022-09-28T02:15:00.609Z,95.84
2022-09-28T02:17:27.612Z,96.09
2022-09-28T02:19:54.001Z,95.79
2022-09-28T02:22:40.587Z,95.79
2022-09-28T02:25:36.801Z,95.68
2022-09-28T02:28:10.939Z,96.20
2022-09-28T02:30:40.293Z,95.77
2022-09-28T02:33:14.082Z,95.71
2022-09-28T02:35:42.846Z,96.43
2022-09-28T02:38:14.426Z,95.59
2022-09-28T02:40:45.852Z,95.74
2022-09-28T02:43:26.879Z,95.69
2022-09-28T02:46:10.778Z,95.74
2022-09-28T02:49:21.657Z,95.75
2022-09-28T02:52:12.306Z,95.69
2022-09-28T02:55:03.076Z,95.97
2022-09-28T02:57:59.955Z,95.79
2022-09-28T03:00:27.366Z,95.68
2022-09-28T03:03:00.413Z,95.87
2022-09-28T03:05:47.518Z,95.34
2022-09-28T03:08:22.063Z,95.47
2022-09-28T03:10:58.614Z,95.67
2022-09-28T03:13:27.130Z,96.06
2022-09-28T03:16:12.488Z,95.13
2022-09-28T03:18:41.189Z,95.37
2022-09-28T03:21:09.205Z,95.20
2022-09-28T03:23:35.634Z,95.02
2022-09-28T03:26:02.465Z,94.89
2022-09-28T03:28:30.053Z,95.41
2022-09-28T03:30:57.410Z,95.19
2022-09-28T03:33:23.811Z,94.77
2022-09-28T03:35:50.847Z,94.84
2022-09-28T03:38:18.638Z,95.04
2022-09-28T03:40:56.020Z,95.11
2022-09-28T03:43:23.801Z,94.60
2022-09-28T03:45:56.602Z,94.51
2022-09-28T03:48:31.207Z,94.79
2022-09-28T03:51:01.126Z,94.94
2022-09-28T03:53:29.473Z,94.49
2022-09-28T03:56:02.023Z,94.77
2022-09-28T03:58:28.868Z,95.35
2022-09-28T04:00:55.454Z,95.18
2022-09-28T04:03:21.874Z,95.12
2022-09-28T04:05:52.606Z,95.20
2022-09-28T04:08:19.799Z,95.30
2022-09-28T04:10:46.738Z,94.86
2022-09-28T04:13:13.257Z,95.71
2022-09-28T04:15:40.890Z,95.84
2022-09-28T04:18:12.338Z,95.30
2022-09-28T04:21:11.869Z,95.74
2022-09-28T04:23:44.693Z,96.07
2022-09-28T04:26:16.661Z,96.40
2022-09-28T04:29:06.618Z,96.10
2022-09-28T04:31:42.616Z,96.21
2022-09-28T04:34:09.347Z,95.96
2022-09-28T04:36:35.769Z,96.21
2022-09-28T04:39:02.197Z,96.29
2022-09-28T04:41:30.437Z,96.13
2022-09-28T04:43:56.807Z,96.16
2022-09-28T04:46:26.078Z,96.17
2022-09-28T04:49:12.547Z,95.98
2022-09-28T04:51:52.106Z,96.07
2022-09-28T04:54:18.769Z,96.12
2022-09-28T04:56:45.386Z,95.99
2022-09-28T04:59:13.410Z,95.94
2022-09-28T05:01:41.571Z,96.05
2022-09-28T05:04:26.429Z,95.51
2022-09-28T05:07:11.512Z,95.94
2022-09-28T05:09:38.664Z,96.24
2022-09-28T05:12:05.301Z,95.65
2022-09-28T05:14:31.671Z,96.12
2022-09-28T05:16:58.217Z,95.90
2022-09-28T05:19:27.448Z,95.94
2022-09-28T05:22:03.889Z,95.85
2022-09-28T05:24:35.033Z,95.85
2022-09-28T05:27:01.421Z,96.16
2022-09-28T05:29:32.257Z,96.13
2022-09-28T05:32:17.657Z,96.39
2022-09-28T05:34:57.348Z,96.32
2022-09-28T05:37:28.857Z,96.62
2022-09-28T05:39:55.327Z,96.97
2022-09-28T05:42:21.691Z,96.79
2022-09-28T05:44:48.198Z,96.53
2022-09-28T05:47:14.588Z,95.55
2022-09-28T05:49:41.045Z,95.37
2022-09-28T05:52:07.441Z,95.29
2022-09-28T05:54:37.211Z,94.62
2022-09-28T05:57:05.170Z,94.61
2022-09-28T05:59:31.560Z,95.08
2022-09-28T06:01:58.003Z,94.88
2022-09-28T06:04:24.405Z,94.74
2022-09-28T06:06:50.972Z,94.61
2022-09-28T06:09:17.728Z,95.07
2022-09-28T06:12:13.076Z,95.09
2022-09-28T06:14:44.671Z,94.85
2022-09-28T06:17:11.679Z,95.00
2022-09-28T06:19:38.947Z,94.76
2022-09-28T06:22:24.583Z,95.18
2022-09-28T06:25:05.638Z,95.22
2022-09-28T06:27:33.412Z,94.94
2022-09-28T06:30:00.756Z,95.99
2022-09-28T06:32:29.170Z,94.99
2022-09-28T06:34:56.645Z,95.87
2022-09-28T06:37:27.173Z,94.72
2022-09-28T06:39:55.104Z,94.97
2022-09-28T06:42:21.948Z,95.17
2022-09-28T06:45:07.895Z,94.71
2022-09-28T06:47:56.627Z,94.98
2022-09-28T06:50:37.423Z,94.82
2022-09-28T06:53:33.161Z,95.00
2022-09-28T06:56:11.306Z,94.54
2022-09-28T06:58:37.758Z,94.77
2022-09-28T07:01:04.473Z,94.53
2022-09-28T07:03:40.807Z,95.64
2022-09-28T07:06:23.995Z,95.21
2022-09-28T07:09:27.899Z,94.66
2022-09-28T07:12:18.861Z,95.02
2022-09-28T07:14:57.426Z,95.09
2022-09-28T07:17:26.272Z,94.89
2022-09-28T07:19:58.722Z,94.86
2022-09-28T07:22:38.859Z,95.15
2022-09-28T07:25:08.973Z,95.36
2022-09-28T07:27:47.090Z,95.09
2022-09-28T07:30:29.329Z,95.58
2022-09-28T07:33:03.996Z,95.19
2022-09-28T07:36:06.478Z,95.06
2022-09-28T07:38:34.300Z,95.36
2022-09-28T07:41:14.073Z,95.59
2022-09-28T07:43:46.466Z,95.52
2022-09-28T07:46:13.003Z,95.92
2022-09-28T07:48:49.413Z,94.86
2022-09-28T07:51:24.160Z,95.73
2022-09-28T07:54:00.340Z,95.50
2022-09-28T07:56:43.197Z,95.22
2022-09-28T07:59:18.615Z,95.17
2022-09-28T08:02:05.350Z,94.97
2022-09-28T08:04:31.798Z,94.68
2022-09-28T08:07:00.262Z,94.71
2022-09-28T08:09:26.651Z,94.65
2022-09-28T08:12:12.813Z,94.02
2022-09-28T08:14:42.130Z,93.98
2022-09-28T08:17:27.274Z,94.10
2022-09-28T08:20:15.242Z,93.60
2022-09-28T08:22:42.031Z,93.90
2022-09-28T08:25:08.836Z,93.95
2022-09-28T08:27:36.043Z,93.57
2022-09-28T08:30:03.861Z,93.61
2022-09-28T08:32:59.306Z,92.54
2022-09-28T08:35:45.885Z,92.31
2022-09-28T08:38:30.824Z,92.05
2022-09-28T08:41:41.958Z,91.01
2022-09-28T08:44:51.719Z,91.12
2022-09-28T08:48:12.432Z,90.91
2022-09-28T08:51:21.878Z,89.83
2022-09-28T08:54:18.550Z,89.78
2022-09-28T08:56:56.961Z,89.31
2022-09-28T08:59:25.024Z,88.58
2022-09-28T09:02:16.370Z,88.51
2022-09-28T09:04:43.230Z,87.83
2022-09-28T09:07:52.051Z,87.81
2022-09-28T09:10:44.014Z,87.76
2022-09-28T09:13:38.789Z,87.69
2022-09-28T09:16:36.293Z,87.38
2022-09-28T09:19:46.834Z,87.79
2022-09-28T09:22:38.593Z,87.39
2022-09-28T09:25:20.342Z,88.21
2022-09-28T09:28:15.836Z,88.38
2022-09-28T09:31:02.084Z,88.54
2022-09-28T09:34:05.959Z,88.41
2022-09-28T09:37:35.314Z,88.73
2022-09-28T09:40:32.186Z,88.80
2022-09-28T09:43:58.611Z,88.36
2022-09-28T09:46:52.560Z,88.28
2022-09-28T09:49:33.318Z,87.81
2022-09-28T09:52:10.023Z,87.57
2022-09-28T09:54:47.713Z,87.64
2022-09-28T09:57:39.409Z,87.67
2022-09-28T10:00:28.964Z,87.83
2022-09-28T10:03:19.483Z,88.03
2022-09-28T10:05:51.941Z,88.09
2022-09-28T10:08:20.780Z,88.08
2022-09-28T10:10:52.510Z,88.03
2022-09-28T10:13:20.527Z,87.81
2022-09-28T10:15:47.965Z,88.11
2022-09-28T10:18:21.486Z,88.12
2022-09-28T10:21:06.720Z,87.92
2022-09-28T10:23:57.333Z,86.77
2022-09-28T10:26:34.429Z,86.05
2022-09-28T10:29:04.920Z,85.62
2022-09-28T10:31:39.264Z,85.33
2022-09-28T10:34:17.090Z,83.88
2022-09-28T10:36:55.813Z,84.33
2022-09-28T10:39:28.580Z,84.32
2022-09-28T10:41:56.162Z,84.11
2022-09-28T10:44:27.166Z,84.16
2022-09-28T10:47:19.022Z,83.46
2022-09-28T10:49:49.217Z,83.25
2022-09-28T10:52:38.694Z,83.32
2022-09-28T10:55:20.552Z,82.97
2022-09-28T10:57:48.066Z,83.28
2022-09-28T11:00:42.896Z,83.44
2022-09-28T11:03:34.134Z,83.03
2022-09-28T11:06:08.661Z,82.60
2022-09-28T11:08:39.928Z,82.35
2022-09-28T11:11:14.272Z,82.48
2022-09-28T11:13:43.981Z,82.39
2022-09-28T11:16:25.876Z,82.29
2022-09-28T11:18:53.580Z,81.81
2022-09-28T11:21:31.090Z,81.93
2022-09-28T11:24:25.275Z,82.13
2022-09-28T11:26:59.104Z,82.46
2022-09-28T11:29:41.952Z,82.52
2022-09-28T11:32:21.774Z,82.30
2022-09-28T11:35:19.688Z,81.60
2022-09-28T11:37:53.598Z,80.50
2022-09-28T11:41:24.645Z,80.93
2022-09-28T11:44:17.859Z,80.95
2022-09-28T11:47:03.379Z,79.25
2022-09-28T11:49:38.755Z,79.08
2022-09-28T11:52:17.044Z,79.30
2022-09-28T11:54:50.574Z,79.04
2022-09-28T11:57:22.083Z,78.44
2022-09-28T12:00:01.853Z,78.41
2022-09-28T12:02:36.813Z,77.82
2022-09-28T12:05:20.679Z,78.39
2022-09-28T12:07:56.987Z,78.15
2022-09-28T12:10:51.126Z,78.30
2022-09-28T12:13:35.209Z,78.87
2022-09-28T12:16:32.613Z,78.59
2022-09-28T12:21:50.497Z,77.61
2022-09-28T12:24:49.049Z,77.60
2022-09-28T12:27:26.966Z,77.13
2022-09-28T12:30:19.202Z,77.20
2022-09-28T12:33:11.078Z,77.38
2022-09-28T12:35:58.493Z,77.01
2022-09-28T12:39:24.055Z,77.24
2022-09-28T12:42:07.947Z,76.83
2022-09-28T12:44:43.158Z,76.98
2022-09-28T12:47:31.274Z,76.54
2022-09-28T12:53:21.466Z,76.46
2022-09-28T12:55:50.972Z,75.88
2022-09-28T12:58:32.739Z,75.71
2022-09-28T13:01:26.824Z,75.71
2022-09-28T13:04:13.350Z,75.29
2022-09-28T13:07:14.556Z,75.38
2022-09-28T13:09:54.054Z,75.81
2022-09-28T13:12:39.086Z,76.05
2022-09-28T13:15:27.323Z,75.88
2022-09-28T13:18:11.900Z,75.91
2022-09-28T13:20:40.194Z,75.84
2022-09-28T13:23:16.394Z,75.92
2022-09-28T13:25:50.381Z,75.96
2022-09-28T13:28:20.595Z,76.05
2022-09-28T13:30:50.255Z,76.37
2022-09-28T13:33:36.724Z,76.37
2022-09-28T13:36:27.837Z,76.29
2022-09-28T13:38:56.165Z,75.93
2022-09-28T13:41:35.348Z,76.09
2022-09-28T13:44:10.661Z,76.07
2022-09-28T13:47:20.783Z,75.71
2022-09-28T13:50:16.301Z,75.93
2022-09-28T13:53:04.459Z,75.76
2022-09-28T13:56:04.341Z,76.34
2022-09-28T13:58:37.033Z,76.32
2022-09-28T14:01:10.574Z,76.54
2022-09-28T14:03:36.929Z,76.68
2022-09-28T14:06:24.752Z,76.07
2022-09-28T14:09:40.380Z,75.82
2022-09-28T14:12:34.391Z,75.93
2022-09-28T14:15:01.485Z,75.86
2022-09-28T14:17:28.030Z,75.98
2022-09-28T14:20:01.866Z,75.69
2022-09-28T14:22:40.514Z,75.07
2022-09-28T14:25:17.356Z,74.97
2022-09-28T14:27:51.280Z,74.79
2022-09-28T14:30:27.473Z,75.08
2022-09-28T14:32:58.400Z,74.99
2022-09-28T14:35:31.332Z,74.72
2022-09-28T14:38:24.980Z,74.28
2022-09-28T14:41:18.038Z,73.85
2022-09-28T14:43:44.386Z,74.04
2022-09-28T14:46:11.250Z,74.20
2022-09-28T14:48:48.722Z,74.09
2022-09-28T14:51:26.994Z,74.00
2022-09-28T14:54:00.218Z,73.08
2022-09-28T14:56:32.577Z,73.00
2022-09-28T14:59:00.290Z,72.93
2022-09-28T15:01:27.464Z,73.52
2022-09-28T15:04:04.440Z,73.24
2022-09-28T15:06:51.079Z,73.63
2022-09-28T15:09:29.742Z,73.40
2022-09-28T15:12:15.008Z,73.36
2022-09-28T15:14:49.845Z,74.03
2022-09-28T15:17:21.236Z,74.13
2022-09-28T15:19:53.772Z,73.80
2022-09-28T15:22:20.972Z,74.26
2022-09-28T15:25:01.353Z,74.45
2022-09-28T15:27:36.867Z,74.57
2022-09-28T15:30:31.759Z,73.89
2022-09-28T15:33:18.440Z,74.00
2022-09-28T15:36:01.921Z,73.41
2022-09-28T15:38:30.021Z,72.99
2022-09-28T15:40:57.345Z,73.23
2022-09-28T15:43:28.985Z,73.25
2022-09-28T15:46:07.048Z,73.53
2022-09-28T15:48:45.680Z,73.56
2022-09-28T15:51:13.089Z,73.24
2022-09-28T15:53:51.108Z,73.72
2022-09-28T15:56:17.530Z,73.68
2022-09-28T15:58:44.076Z,74.19
2022-09-28T16:01:36.569Z,74.25
2022-09-28T16:04:40.445Z,75.00
2022-09-28T16:07:13.065Z,75.30
2022-09-28T16:10:01.216Z,75.50
2022-09-28T16:12:42.011Z,75.43
2022-09-28T16:15:20.311Z,75.61
2022-09-28T16:17:53.994Z,76.06
2022-09-28T16:20:29.369Z,76.33
2022-09-28T16:22:59.360Z,76.69
2022-09-28T16:25:26.821Z,76.99
2022-09-28T16:27:55.130Z,77.16
2022-09-28T16:30:28.639Z,77.72
2022-09-28T16:33:01.740Z,77.81
2022-09-28T16:35:40.247Z,78.24
2022-09-28T16:38:13.655Z,78.51
2022-09-28T16:40:42.634Z,79.04
2022-09-28T16:43:18.743Z,79.10
2022-09-28T16:45:45.206Z,79.05
2022-09-28T16:48:19.322Z,79.43
2022-09-28T16:50:46.469Z,79.63
2022-09-28T16:53:34.152Z,80.03
2022-09-28T16:56:02.125Z,80.49
2022-09-28T16:58:28.943Z,80.52
2022-09-28T17:00:55.503Z,81.05
2022-09-28T17:03:23.434Z,81.54
2022-09-28T17:05:51.051Z,81.97
2022-09-28T17:08:20.095Z,82.15
2022-09-28T17:11:20.145Z,82.35
2022-09-28T17:13:38.991Z,82.77
2022-09-28T17:16:14.303Z,83.29
2022-09-28T17:18:41.191Z,83.51
2022-09-28T17:21:12.339Z,83.92
2022-09-28T17:23:38.967Z,83.91
2022-09-28T17:26:05.919Z,84.38
2022-09-28T17:28:34.460Z,84.36
2022-09-28T17:31:01.010Z,84.72
2022-09-28T17:33:28.186Z,84.93
2022-09-28T17:36:00.427Z,85.06
2022-09-28T17:38:27.789Z,85.29
2022-09-28T17:40:54.213Z,85.48
2022-09-28T17:43:23.572Z,85.61
2022-09-28T17:45:50.300Z,85.78
2022-09-28T17:48:19.327Z,85.86
2022-09-28T17:50:47.388Z,86.17
2022-09-28T17:53:14.322Z,86.46
2022-09-28T17:55:40.797Z,86.17
2022-09-28T17:58:21.811Z,86.23
2022-09-28T18:00:50.701Z,86.49
2022-09-28T18:03:20.465Z,86.44
2022-09-28T18:05:49.710Z,86.29
2022-09-28T18:08:19.322Z,86.46
2022-09-28T18:10:48.779Z,86.42
2022-09-28T18:13:15.131Z,86.51
2022-09-28T18:15:42.143Z,86.75
2022-09-28T18:18:09.773Z,87.30
2022-09-28T18:20:37.330Z,87.50
2022-09-28T18:23:03.724Z,87.21
2022-09-28T18:25:30.274Z,86.75
2022-09-28T18:27:57.513Z,87.14
2022-09-28T18:30:24.559Z,87.39
2022-09-28T18:32:51.002Z,87.25
2022-09-28T18:35:22.582Z,87.72
2022-09-28T18:37:49.839Z,87.38
2022-09-28T18:40:16.368Z,87.48
2022-09-28T18:42:42.833Z,87.36
2022-09-28T18:45:15.935Z,87.83
2022-09-28T18:47:42.269Z,88.00
2022-09-28T18:50:11.879Z,87.43
2022-09-28T18:52:42.850Z,88.30
2022-09-28T18:55:10.086Z,87.63
2022-09-28T18:57:36.818Z,87.93
2022-09-28T19:00:09.596Z,88.14
2022-09-28T19:02:36.864Z,87.79
2022-09-28T19:05:05.637Z,88.23
2022-09-28T19:07:33.560Z,88.03
2022-09-28T19:10:00.005Z,88.05
2022-09-28T19:12:26.390Z,88.19
2022-09-28T19:14:52.864Z,88.09
2022-09-28T19:17:20.375Z,87.93
2022-09-28T19:19:46.738Z,87.88
2022-09-28T19:22:13.214Z,87.75
2022-09-28T19:24:39.686Z,87.64
2022-09-28T19:27:06.155Z,88.09
2022-09-28T19:29:32.643Z,88.11
2022-09-28T19:31:59.077Z,88.35
2022-09-28T19:34:29.831Z,88.06
2022-09-28T19:36:56.724Z,87.98
2022-09-28T19:39:23.172Z,88.21
2022-09-28T19:41:51.147Z,88.01
2022-09-28T19:44:25.797Z,88.52
2022-09-28T19:46:55.081Z,88.30
2022-09-28T19:49:22.638Z,87.94
2022-09-28T19:52:11.605Z,88.03
2022-09-28T19:54:38.032Z,88.17
2022-09-28T19:57:08.346Z,88.61
2022-09-28T19:59:37.064Z,88.23
2022-09-28T20:02:05.357Z,87.96
2022-09-28T20:04:31.746Z,87.87
2022-09-28T20:06:58.132Z,87.96
2022-09-28T20:09:24.553Z,88.21
2022-09-28T20:11:51.848Z,88.00
2022-09-28T20:14:23.362Z,88.10
2022-09-28T20:16:52.221Z,88.31
2022-09-28T20:19:21.398Z,87.86
2022-09-28T20:21:50.956Z,88.08
2022-09-28T20:24:17.560Z,88.14
2022-09-28T20:26:45.632Z,87.90
2022-09-28T20:29:12.347Z,87.78
2022-09-28T20:31:38.782Z,87.55
2022-09-28T20:34:05.903Z,88.21
2022-09-28T20:36:32.730Z,88.24
2022-09-28T20:39:01.880Z,88.10
2022-09-28T20:41:33.337Z,88.03
2022-09-28T20:44:04.264Z,88.07
2022-09-28T20:46:32.005Z,88.44
2022-09-28T20:48:59.428Z,88.34
2022-09-28T20:51:25.855Z,88.03
2022-09-28T20:53:54.627Z,87.67
2022-09-28T20:56:30.433Z,87.88
2022-09-28T20:58:57.122Z,87.79
2022-09-28T21:01:25.517Z,87.59
2022-09-28T21:03:59.853Z,87.17
2022-09-28T21:06:29.122Z,87.21
2022-09-28T21:08:55.613Z,87.70
2022-09-28T21:11:24.297Z,87.43
2022-09-28T21:13:59.181Z,87.41
2022-09-28T21:16:27.774Z,87.04
2022-09-28T21:18:54.364Z,86.80
2022-09-28T21:21:22.293Z,86.92
2022-09-28T21:23:52.308Z,87.28
2022-09-28T21:26:30.000Z,87.47
2022-09-28T21:28:57.854Z,87.82
2022-09-28T21:31:29.168Z,87.01
2022-09-28T21:33:57.016Z,87.31
2022-09-28T21:36:23.474Z,87.75
2022-09-28T21:38:50.027Z,87.68
2022-09-28T21:41:17.089Z,87.54
2022-09-28T21:43:43.471Z,87.35
2022-09-28T21:46:10.345Z,87.06
2022-09-28T21:48:37.090Z,87.56
2022-09-28T21:51:06.108Z,88.35
2022-09-28T21:53:34.803Z,87.89
2022-09-28T21:56:01.977Z,87.81
2022-09-28T21:58:30.785Z,87.66
2022-09-28T22:01:02.760Z,88.08
2022-09-28T22:03:30.740Z,88.39
2022-09-28T22:05:57.268Z,87.36
2022-09-28T22:08:24.813Z,87.27
2022-09-28T22:11:18.698Z,88.14
2022-09-28T22:13:46.306Z,88.19
2022-09-28T22:16:14.657Z,88.31
2022-09-28T22:18:41.773Z,88.08
2022-09-28T22:21:12.273Z,87.31
2022-09-28T22:23:39.669Z,88.19
2022-09-28T22:26:10.715Z,88.26
2022-09-28T22:28:38.695Z,88.07
2022-09-28T22:31:05.857Z,88.07
2022-09-28T22:33:32.337Z,87.29
2022-09-28T22:35:58.677Z,87.19
2022-09-28T22:38:25.120Z,87.31
2022-09-28T22:40:54.511Z,87.75
2022-09-28T22:43:23.378Z,87.54
2022-09-28T22:45:50.382Z,87.76
2022-09-28T22:48:17.004Z,88.07
2022-09-28T22:50:50.744Z,87.56
2022-09-28T22:53:17.936Z,87.56
2022-09-28T22:55:46.972Z,88.08
2022-09-28T22:58:13.753Z,87.96
2022-09-28T23:00:40.271Z,88.00
2022-09-28T23:03:06.695Z,87.92
2022-09-28T23:05:33.186Z,87.64
2022-09-28T23:07:59.659Z,86.92
2022-09-28T23:10:26.043Z,86.69
2022-09-28T23:12:55.831Z,86.73
2022-09-28T23:15:22.824Z,86.77
2022-09-28T23:17:52.843Z,86.86
2022-09-28T23:20:23.557Z,87.05
2022-09-28T23:22:50.537Z,88.30
2022-09-28T23:25:18.257Z,87.55
2022-09-28T23:27:49.544Z,88.26
2022-09-28T23:30:17.606Z,87.96
2022-09-28T23:32:44.553Z,88.45
2022-09-28T23:35:11.489Z,88.10
2022-09-28T23:37:38.094Z,88.01
2022-09-28T23:40:06.032Z,88.56
2022-09-28T23:42:33.264Z,87.87
2022-09-28T23:44:59.629Z,87.66
2022-09-28T23:47:26.118Z,87.81
2022-09-28T23:49:52.551Z,88.13
2022-09-28T23:52:18.983Z,87.31
2022-09-28T23:54:45.498Z,88.12
2022-09-28T23:57:11.897Z,87.60
2022-09-28T23:59:38.611Z,87.50
